Time;durP1;ratioP1;P1;durP2;ratioP2;P2;SDS_P1;SDS_P2;PMS_P1;PMS_P2;Temp;Humidity;BMP_temperature;BMP_pressure;BME280_temperature;BME280_humidity;BME280_pressure;Samples;Min_cycle;Max_cycle;Signal;HPM_P1;HPM_P2
2023/06/28 00:02:22;;;;;;;9.00;3.77;;;;;;;;;;6218992;28;20097;-74
2023/06/28 00:05:22;;;;;;;6.73;3.70;;;;;;;;;;6218878;28;20153;-74
2023/06/28 00:08:22;;;;;;;6.23;3.30;;;;;;;;;;6218872;28;20265;-74
2023/06/28 00:11:22;;;;;;;9.70;3.40;;;;;;;;;;6218613;28;20060;-74
2023/06/28 00:14:23;;;;;;;7.78;4.18;;;;;;;;;;6218794;28;20025;-74
2023/06/28 00:17:27;;;;;;;11.13;4.45;;;;;;;;;;6217961;28;20080;-74
2023/06/28 00:20:27;;;;;;;9.00;4.03;;;;;;;;;;6218425;28;20060;-74
2023/06/28 00:23:29;;;;;;;9.25;4.93;;;;;;;;;;6216113;28;20504;-74
2023/06/28 00:26:29;;;;;;;7.23;4.10;;;;;;;;;;6217580;28;20018;-74
2023/06/28 00:29:29;;;;;;;6.78;4.45;;;;;;;;;;6218059;28;20046;-74
2023/06/28 00:32:30;;;;;;;8.03;4.07;;;;;;;;;;6218575;28;20034;-74
2023/06/28 00:35:30;;;;;;;13.17;4.63;;;;;;;;;;6214123;28;20503;-74
2023/06/28 00:38:30;;;;;;;8.98;4.85;;;;;;;;;;6218445;28;20476;-74
2023/06/28 00:41:30;;;;;;;9.70;5.66;;;;;;;;;;6218347;28;20265;-74
2023/06/28 00:44:30;;;;;;;10.33;3.97;;;;;;;;;;6213519;28;20054;-74
2023/06/28 00:47:31;;;;;;;13.30;4.07;;;;;;;;;;6218410;28;20024;-74
2023/06/28 00:50:31;;;;;;;10.40;4.70;;;;;;;;;;6218169;28;20021;-74
2023/06/28 00:53:31;;;;;;;6.82;4.18;;;;;;;;;;6217983;28;20025;-74
2023/06/28 00:56:32;;;;;;;8.60;4.15;;;;;;;;;;6218451;28;20476;-74
2023/06/28 00:59:33;;;;;;;10.75;4.15;;;;;;;;;;6215563;28;20026;-74
2023/06/28 01:02:33;;;;;;;5.53;3.72;;;;;;;;;;6216254;28;20026;-81
2023/06/28 01:05:33;;;;;;;10.05;5.00;;;;;;;;;;6211892;28;20428;-82
2023/06/28 01:08:34;;;;;;;7.53;4.13;;;;;;;;;;6212764;28;20022;-83
2023/06/28 01:11:34;;;;;;;6.43;4.32;;;;;;;;;;6217474;28;20026;-84
2023/06/28 01:14:35;;;;;;;8.03;4.27;;;;;;;;;;6218467;28;20034;-83
2023/06/28 01:17:35;;;;;;;7.47;4.47;;;;;;;;;;6218407;28;20026;-83
2023/06/28 01:20:35;;;;;;;10.15;4.95;;;;;;;;;;6215279;28;20484;-81
2023/06/28 01:23:36;;;;;;;7.93;4.40;;;;;;;;;;6217893;28;20018;-73
2023/06/28 01:26:39;;;;;;;8.47;4.40;;;;;;;;;;6207717;28;20018;-74
2023/06/28 01:29:40;;;;;;;8.38;4.25;;;;;;;;;;6217175;28;20050;-72
2023/06/28 01:32:41;;;;;;;9.15;4.53;;;;;;;;;;6217420;28;20033;-72
2023/06/28 01:35:41;;;;;;;6.30;4.03;;;;;;;;;;6217523;28;20083;-72
2023/06/28 01:38:42;;;;;;;11.55;4.63;;;;;;;;;;6198698;28;20030;-72
2023/06/28 01:41:43;;;;;;;7.07;4.25;;;;;;;;;;6216951;28;20050;-73
2023/06/28 01:44:43;;;;;;;7.37;4.27;;;;;;;;;;6217307;28;20205;-73
2023/06/28 01:47:43;;;;;;;8.93;4.37;;;;;;;;;;6200125;28;20060;-73
2023/06/28 01:50:44;;;;;;;6.93;4.30;;;;;;;;;;6208220;28;20448;-72
2023/06/28 01:53:45;;;;;;;6.47;3.97;;;;;;;;;;6217054;28;20037;-73
2023/06/28 01:56:45;;;;;;;8.55;4.35;;;;;;;;;;6215053;28;20115;-73
2023/06/28 01:59:45;;;;;;;9.03;4.87;;;;;;;;;;6221262;28;20033;-73
2023/06/28 02:02:46;;;;;;;10.63;4.25;;;;;;;;;;6221607;28;20064;-73
2023/06/28 02:05:46;;;;;;;9.23;4.63;;;;;;;;;;6221216;28;20049;-73
2023/06/28 02:08:46;;;;;;;7.15;4.35;;;;;;;;;;6219925;28;20053;-73
2023/06/28 02:11:46;;;;;;;8.13;3.88;;;;;;;;;;6219133;28;20789;-73
2023/06/28 02:14:46;;;;;;;6.17;4.50;;;;;;;;;;6219541;28;20026;-73
2023/06/28 02:17:47;;;;;;;6.87;3.93;;;;;;;;;;6219626;28;20628;-73
2023/06/28 02:20:47;;;;;;;6.05;4.15;;;;;;;;;;6219314;28;20065;-73
2023/06/28 02:23:48;;;;;;;8.65;5.38;;;;;;;;;;6219725;28;20105;-73
2023/06/28 02:26:48;;;;;;;7.17;4.63;;;;;;;;;;6220726;28;20040;-73
2023/06/28 02:29:48;;;;;;;6.77;4.47;;;;;;;;;;6220859;28;20599;-73
2023/06/28 02:32:48;;;;;;;6.63;4.73;;;;;;;;;;6221123;28;20104;-82
2023/06/28 02:35:49;;;;;;;7.80;4.43;;;;;;;;;;6218881;28;20029;-82
2023/06/28 02:38:49;;;;;;;8.35;4.30;;;;;;;;;;6220952;28;20057;-83
2023/06/28 02:41:49;;;;;;;7.40;4.10;;;;;;;;;;6220979;28;20449;-82
2023/06/28 02:44:49;;;;;;;6.30;4.53;;;;;;;;;;6203408;28;20469;-81
2023/06/28 02:47:49;;;;;;;6.93;4.13;;;;;;;;;;6220685;28;20292;-80
2023/06/28 02:50:50;;;;;;;8.63;4.47;;;;;;;;;;6220339;28;20464;-81
2023/06/28 02:53:50;;;;;;;6.53;3.88;;;;;;;;;;6220349;28;20105;-81
2023/06/28 02:56:50;;;;;;;6.43;4.38;;;;;;;;;;6220761;28;20033;-83
2023/06/28 02:59:50;;;;;;;8.02;4.25;;;;;;;;;;6202664;28;20025;-82
2023/06/28 03:02:50;;;;;;;7.40;4.23;;;;;;;;;;6220477;28;20029;-82
2023/06/28 03:05:50;;;;;;;7.13;4.27;;;;;;;;;;6221132;28;20057;-81
2023/06/28 03:08:51;;;;;;;7.00;4.10;;;;;;;;;;6217960;28;20096;-81
2023/06/28 03:11:51;;;;;;;8.30;4.13;;;;;;;;;;6218732;28;20403;-83
2023/06/28 03:14:51;;;;;;;9.50;5.10;;;;;;;;;;6217835;28;20281;-80
2023/06/28 03:17:51;;;;;;;11.27;4.47;;;;;;;;;;6220074;28;20080;-81
2023/06/28 03:20:52;;;;;;;8.57;4.57;;;;;;;;;;6220194;28;20088;-80
2023/06/28 03:23:52;;;;;;;7.13;4.80;;;;;;;;;;6220711;28;20261;-81
2023/06/28 03:26:52;;;;;;;8.73;4.43;;;;;;;;;;6219337;28;20072;-81
2023/06/28 03:29:52;;;;;;;8.32;4.82;;;;;;;;;;6219642;28;20516;-82
2023/06/28 03:32:52;;;;;;;9.76;5.30;;;;;;;;;;6219643;28;20018;-74
2023/06/28 03:35:53;;;;;;;7.65;4.22;;;;;;;;;;6219712;28;20030;-74
2023/06/28 03:38:53;;;;;;;7.47;4.85;;;;;;;;;;6219813;28;20092;-74
2023/06/28 03:41:53;;;;;;;8.75;4.85;;;;;;;;;;6219816;28;20030;-74
2023/06/28 03:44:54;;;;;;;9.00;4.38;;;;;;;;;;6219387;28;20022;-74
2023/06/28 03:47:54;;;;;;;8.17;4.90;;;;;;;;;;6200871;28;20121;-74
2023/06/28 03:50:54;;;;;;;8.87;4.83;;;;;;;;;;6219673;28;20022;-74
2023/06/28 03:53:55;;;;;;;7.50;4.57;;;;;;;;;;6220233;28;20052;-74
2023/06/28 03:56:55;;;;;;;8.25;4.80;;;;;;;;;;6213968;28;20025;-74
2023/06/28 03:59:55;;;;;;;8.73;6.07;;;;;;;;;;6218763;28;20033;-74
2023/06/28 04:02:55;;;;;;;11.67;5.80;;;;;;;;;;6218659;28;20041;-82
2023/06/28 04:05:56;;;;;;;7.97;4.45;;;;;;;;;;6219069;28;20060;-82
2023/06/28 04:08:56;;;;;;;9.93;5.97;;;;;;;;;;6201368;28;20481;-82
2023/06/28 04:11:56;;;;;;;11.80;5.43;;;;;;;;;;6219893;28;20029;-83
2023/06/28 04:14:57;;;;;;;8.93;5.47;;;;;;;;;;6218854;28;20037;-83
2023/06/28 04:17:57;;;;;;;8.73;4.57;;;;;;;;;;6218182;28;20392;-78
2023/06/28 04:20:57;;;;;;;7.13;3.90;;;;;;;;;;6218512;28;20040;-79
2023/06/28 04:23:57;;;;;;;8.47;4.10;;;;;;;;;;6218698;28;20026;-80
2023/06/28 04:27:00;;;;;;;10.27;4.23;;;;;;;;;;6218382;28;20021;-81
2023/06/28 04:30:00;;;;;;;7.75;3.80;;;;;;;;;;6238518;28;20093;-79
2023/06/28 04:33:04;;;;;;;9.57;4.30;;;;;;;;;;6241377;28;20425;-81
2023/06/28 04:36:05;;;;;;;13.45;4.57;;;;;;;;;;6236426;28;20490;-81
2023/06/28 04:39:05;;;;;;;8.77;3.57;;;;;;;;;;6242965;28;20083;-80
2023/06/28 04:42:05;;;;;;;5.03;3.53;;;;;;;;;;6242510;28;20021;-80
2023/06/28 04:45:06;;;;;;;8.37;4.23;;;;;;;;;;6243233;28;20171;-80
2023/06/28 04:48:07;;;;;;;7.28;3.45;;;;;;;;;;6242488;28;20075;-81
2023/06/28 04:51:07;;;;;;;5.83;3.23;;;;;;;;;;6239213;28;20013;-81
2023/06/28 04:54:07;;;;;;;6.30;4.13;;;;;;;;;;6242658;28;20492;-81
2023/06/28 04:57:08;;;;;;;6.70;2.83;;;;;;;;;;6242144;28;20025;-81
2023/06/28 05:00:10;;;;;;;6.87;3.10;;;;;;;;;;6242957;28;20388;-82
2023/06/28 05:03:10;;;;;;;9.00;3.13;;;;;;;;;;6241088;28;20028;-73
2023/06/28 05:06:11;;;;;;;4.97;2.73;;;;;;;;;;6242142;28;20022;-73
2023/06/28 05:09:11;;;;;;;6.47;2.57;;;;;;;;;;6237630;28;20021;-73
2023/06/28 05:12:11;;;;;;;3.93;2.70;;;;;;;;;;6231896;28;20399;-81
2023/06/28 05:15:11;;;;;;;7.77;3.13;;;;;;;;;;6231081;28;20088;-81
2023/06/28 05:18:12;;;;;;;9.37;3.93;;;;;;;;;;6236238;28;20488;-78
2023/06/28 05:21:12;;;;;;;5.63;2.87;;;;;;;;;;6241388;28;20033;-80
2023/06/28 05:24:12;;;;;;;7.07;2.60;;;;;;;;;;6241620;28;20041;-79
2023/06/28 05:27:12;;;;;;;6.40;2.93;;;;;;;;;;6241912;28;20022;-81
2023/06/28 05:30:13;;;;;;;6.65;2.40;;;;;;;;;;6217045;28;20032;-80
2023/06/28 05:33:13;;;;;;;5.80;2.70;;;;;;;;;;6222616;28;20028;-79
2023/06/28 05:36:14;;;;;;;7.10;2.73;;;;;;;;;;6219826;28;20037;-81
2023/06/28 05:39:15;;;;;;;7.75;2.78;;;;;;;;;;6220254;28;20036;-81
2023/06/28 05:42:15;;;;;;;8.43;2.88;;;;;;;;;;6219658;28;20025;-80
2023/06/28 05:45:15;;;;;;;9.33;3.20;;;;;;;;;;6222221;28;20060;-81
2023/06/28 05:48:15;;;;;;;6.85;2.47;;;;;;;;;;6222801;28;20037;-79
2023/06/28 05:51:15;;;;;;;6.67;2.43;;;;;;;;;;6218504;28;20148;-79
2023/06/28 05:54:16;;;;;;;11.73;3.27;;;;;;;;;;6214549;28;20043;-78
2023/06/28 05:57:16;;;;;;;8.37;3.30;;;;;;;;;;6216420;28;20011;-79
2023/06/28 06:00:17;;;;;;;6.50;2.50;;;;;;;;;;6221546;28;20503;-78
2023/06/28 06:03:17;;;;;;;5.70;3.30;;;;;;;;;;6222104;28;20022;-78
2023/06/28 06:06:17;;;;;;;6.75;2.78;;;;;;;;;;6221440;28;20392;-78
2023/06/28 06:09:17;;;;;;;5.10;3.13;;;;;;;;;;6221183;28;20104;-81
2023/06/28 06:12:18;;;;;;;6.57;2.50;;;;;;;;;;6213564;28;20034;-81
2023/06/28 06:15:18;;;;;;;8.80;2.50;;;;;;;;;;6221158;28;20444;-80
2023/06/28 06:18:18;;;;;;;6.67;3.20;;;;;;;;;;6220111;28;20048;-80
2023/06/28 06:21:19;;;;;;;9.95;3.10;;;;;;;;;;6220014;28;20029;-80
2023/06/28 06:24:19;;;;;;;15.07;2.88;;;;;;;;;;6218926;28;20030;-75
2023/06/28 06:27:19;;;;;;;6.50;2.60;;;;;;;;;;6214270;28;20023;-74
2023/06/28 06:30:19;;;;;;;5.87;2.33;;;;;;;;;;6213457;28;20144;-75
2023/06/28 06:33:19;;;;;;;6.13;2.53;;;;;;;;;;6221334;28;20109;-81
2023/06/28 06:36:20;;;;;;;3.60;2.43;;;;;;;;;;6214713;28;20097;-78
2023/06/28 06:39:20;;;;;;;6.63;2.80;;;;;;;;;;6219226;28;20185;-77
2023/06/28 06:42:20;;;;;;;3.65;2.05;;;;;;;;;;6219419;28;20022;-79
2023/06/28 06:45:20;;;;;;;4.90;2.00;;;;;;;;;;6220987;28;20479;-79
2023/06/28 06:48:21;;;;;;;3.70;1.80;;;;;;;;;;6220029;28;20021;-79
2023/06/28 06:51:21;;;;;;;5.47;2.33;;;;;;;;;;6219742;28;20033;-80
2023/06/28 06:54:21;;;;;;;5.40;2.57;;;;;;;;;;6216743;28;20045;-79
2023/06/28 06:57:22;;;;;;;4.53;2.00;;;;;;;;;;6220421;28;20669;-79
2023/06/28 07:00:22;;;;;;;8.73;2.73;;;;;;;;;;6220287;28;20028;-80
2023/06/28 07:03:22;;;;;;;8.13;2.40;;;;;;;;;;6220791;28;20022;-80
2023/06/28 07:06:22;;;;;;;6.97;2.60;;;;;;;;;;6219844;28;20092;-79
2023/06/28 07:09:24;;;;;;;4.27;2.10;;;;;;;;;;6220365;28;20439;-80
2023/06/28 07:12:24;;;;;;;3.13;1.88;;;;;;;;;;6217631;28;20053;-79
2023/06/28 07:15:25;;;;;;;4.22;2.50;;;;;;;;;;6217555;28;20530;-81
2023/06/28 07:18:25;;;;;;;3.27;2.33;;;;;;;;;;6215144;28;20014;-82
2023/06/28 07:21:25;;;;;;;3.53;2.05;;;;;;;;;;6214698;28;20053;-80
2023/06/28 07:24:25;;;;;;;4.05;2.00;;;;;;;;;;6216302;28;20014;-79
2023/06/28 07:27:25;;;;;;;4.00;2.90;;;;;;;;;;6216464;28;20018;-77
2023/06/28 07:30:29;;;;;;;2.88;1.60;;;;;;;;;;6216440;28;20014;-79
2023/06/28 07:33:29;;;;;;;7.90;3.45;;;;;;;;;;6215889;28;20022;-79
2023/06/28 07:36:31;;;;;;;5.88;1.90;;;;;;;;;;6217699;28;20018;-80
2023/06/28 07:39:31;;;;;;;5.20;1.95;;;;;;;;;;6215937;28;20033;-79
2023/06/28 07:42:33;;;;;;;3.58;1.95;;;;;;;;;;6217525;28;20022;-79
2023/06/28 07:45:33;;;;;;;4.43;1.65;;;;;;;;;;6218435;28;20080;-78
2023/06/28 07:48:34;;;;;;;6.10;1.97;;;;;;;;;;6201627;28;20022;-78
2023/06/28 07:51:34;;;;;;;4.83;1.53;;;;;;;;;;6212945;28;20052;-79
2023/06/28 07:54:34;;;;;;;3.83;2.10;;;;;;;;;;6217114;28;20026;-80
2023/06/28 07:57:34;;;;;;;3.63;1.80;;;;;;;;;;6218932;28;20067;-81
2023/06/28 08:00:34;;;;;;;1.77;1.07;;;;;;;;;;6218970;28;20935;-80
2023/06/28 08:03:35;;;;;;;3.10;2.00;;;;;;;;;;6219322;28;20025;-74
2023/06/28 08:06:35;;;;;;;4.60;2.00;;;;;;;;;;6201026;28;20018;-74
2023/06/28 08:09:35;;;;;;;3.30;1.75;;;;;;;;;;6215856;28;20048;-74
2023/06/28 08:12:35;;;;;;;5.20;1.88;;;;;;;;;;6215207;28;20071;-75
2023/06/28 08:15:38;;;;;;;5.87;1.73;;;;;;;;;;6211299;28;20025;-74
2023/06/28 08:18:38;;;;;;;4.90;2.33;;;;;;;;;;6214277;28;20054;-73
2023/06/28 08:21:39;;;;;;;5.93;1.77;;;;;;;;;;6218618;28;20013;-74
2023/06/28 08:24:39;;;;;;;3.77;1.27;;;;;;;;;;6218334;28;20026;-74
2023/06/28 08:27:39;;;;;;;4.97;2.00;;;;;;;;;;6218591;28;20038;-74
2023/06/28 08:30:39;;;;;;;4.27;1.50;;;;;;;;;;6211863;28;20582;-74
2023/06/28 08:33:40;;;;;;;3.47;2.17;;;;;;;;;;6215319;28;20025;-74
2023/06/28 08:36:40;;;;;;;4.23;1.63;;;;;;;;;;6217057;28;20496;-74
2023/06/28 08:39:40;;;;;;;4.25;1.83;;;;;;;;;;6216440;28;20010;-74
2023/06/28 08:42:42;;;;;;;4.83;1.50;;;;;;;;;;6217027;28;20022;-74
2023/06/28 08:45:43;;;;;;;3.42;1.52;;;;;;;;;;6216253;28;20042;-74
2023/06/28 08:48:45;;;;;;;3.08;1.58;;;;;;;;;;6218108;28;20034;-74
2023/06/28 08:51:46;;;;;;;5.97;1.70;;;;;;;;;;6218575;28;20418;-80
2023/06/28 08:54:47;;;;;;;4.40;1.43;;;;;;;;;;6218660;28;20137;-80
2023/06/28 08:57:47;;;;;;;2.40;1.40;;;;;;;;;;6218521;28;21006;-80
2023/06/28 09:00:47;;;;;;;0.93;0.83;;;;;;;;;;6217971;28;20539;-80
2023/06/28 09:03:48;;;;;;;6.93;1.80;;;;;;;;;;6217833;28;20018;-79
2023/06/28 09:06:49;;;;;;;5.63;1.20;;;;;;;;;;6217996;28;20029;-81
2023/06/28 09:09:51;;;;;;;4.32;1.45;;;;;;;;;;6220259;28;20018;-82
2023/06/28 09:12:51;;;;;;;1.63;1.17;;;;;;;;;;6217898;28;20191;-74
2023/06/28 09:15:53;;;;;;;1.73;1.10;;;;;;;;;;6199995;28;20026;-74
2023/06/28 09:18:53;;;;;;;2.08;1.60;;;;;;;;;;6213627;28;20472;-74
2023/06/28 09:22:00;;;;;;;3.30;2.10;;;;;;;;;;6216545;28;20029;-73
2023/06/28 09:25:02;;;;;;;6.07;2.08;;;;;;;;;;6217138;28;20539;-74
2023/06/28 09:28:05;;;;;;;4.25;1.92;;;;;;;;;;6211905;28;20109;-74
2023/06/28 09:31:05;;;;;;;3.47;1.55;;;;;;;;;;6216300;28;20092;-75
2023/06/28 09:34:05;;;;;;;2.37;1.50;;;;;;;;;;6216712;28;20057;-76
2023/06/28 09:37:06;;;;;;;5.20;1.90;;;;;;;;;;6216599;28;20014;-77
2023/06/28 09:40:06;;;;;;;5.87;1.80;;;;;;;;;;6216432;28;20062;-76
2023/06/28 09:43:13;;;;;;;2.93;1.50;;;;;;;;;;6200144;28;20006;-77
2023/06/28 09:46:14;;;;;;;2.58;1.90;;;;;;;;;;6217666;28;20037;-76
2023/06/28 09:49:21;;;;;;;3.97;2.10;;;;;;;;;;6213183;28;20029;-76
2023/06/28 09:52:22;;;;;;;3.05;1.55;;;;;;;;;;6216230;28;20018;-76
2023/06/28 09:55:24;;;;;;;4.97;1.73;;;;;;;;;;6197526;28;20068;-76
2023/06/28 09:58:27;;;;;;;3.20;1.48;;;;;;;;;;6216830;28;20018;-76
2023/06/28 10:01:27;;;;;;;5.30;1.83;;;;;;;;;;6215333;28;20025;-76
2023/06/28 10:04:29;;;;;;;4.07;1.40;;;;;;;;;;6216668;28;20766;-80
2023/06/28 10:07:30;;;;;;;6.07;1.65;;;;;;;;;;6216222;28;20022;-82
2023/06/28 10:10:31;;;;;;;4.05;1.85;;;;;;;;;;6225378;28;20080;-77
2023/06/28 10:13:32;;;;;;;5.40;2.88;;;;;;;;;;6237201;28;20065;-77
2023/06/28 10:16:35;;;;;;;4.13;2.10;;;;;;;;;;6241739;28;20076;-80
2023/06/28 10:19:36;;;;;;;1.90;1.30;;;;;;;;;;6214507;28;20006;-78
2023/06/28 10:22:39;;;;;;;3.83;1.20;;;;;;;;;;6223989;28;20076;-80
2023/06/28 10:25:41;;;;;;;3.47;1.40;;;;;;;;;;6198884;28;20524;-80
2023/06/28 10:28:41;;;;;;;2.92;1.40;;;;;;;;;;6222040;28;20057;-76
2023/06/28 10:31:42;;;;;;;3.67;1.60;;;;;;;;;;6275175;28;20056;-77
2023/06/28 10:34:43;;;;;;;2.73;1.17;;;;;;;;;;6279695;28;20030;-76
2023/06/28 10:37:43;;;;;;;1.90;1.43;;;;;;;;;;6268965;28;20486;-83
2023/06/28 10:40:46;;;;;;;6.77;4.27;;;;;;;;;;6244800;28;20303;-80
2023/06/28 10:43:47;;;;;;;4.25;2.28;;;;;;;;;;6240406;28;20021;-80
2023/06/28 10:46:50;;;;;;;11.33;2.47;;;;;;;;;;6234140;28;20025;-80
2023/06/28 10:50:09;;;;;;;6.03;2.38;;;;;;;;;;6248524;28;20091;-82
2023/06/28 10:53:20;;;;;;;3.85;1.70;;;;;;;;;;6236022;28;20025;-81
2023/06/28 10:56:21;;;;;;;3.92;1.95;;;;;;;;;;6240865;28;20059;-81
2023/06/28 10:59:22;;;;;;;7.65;1.80;;;;;;;;;;6238765;28;20738;-83
2023/06/28 11:02:42;;;;;;;6.97;1.80;;;;;;;;;;6242809;28;20056;-83
2023/06/28 11:05:46;;;;;;;5.68;1.73;;;;;;;;;;6237834;28;20260;-79
2023/06/28 11:08:46;;;;;;;3.75;1.50;;;;;;;;;;6248710;28;20442;-80
2023/06/28 11:11:57;;;;;;;3.43;1.50;;;;;;;;;;6249041;28;20017;-82
2023/06/28 11:15:11;;;;;;;7.60;1.20;;;;;;;;;;6244454;28;20029;-81
2023/06/28 11:18:15;;;;;;;3.92;1.70;;;;;;;;;;6246237;28;20049;-82
2023/06/28 11:21:17;;;;;;;6.00;1.45;;;;;;;;;;6245737;28;20026;-78
2023/06/28 11:24:29;;;;;;;4.55;2.15;;;;;;;;;;6232761;28;20021;-82
2023/06/28 11:27:38;;;;;;;5.55;1.60;;;;;;;;;;6235142;28;20025;-80
2023/06/28 11:30:50;;;;;;;4.30;1.48;;;;;;;;;;6215402;28;20053;-80
2023/06/28 11:33:54;;;;;;;10.25;2.00;;;;;;;;;;6215083;28;20030;-75
2023/06/28 11:36:54;;;;;;;4.43;1.75;;;;;;;;;;6219088;28;20069;-74
2023/06/28 11:39:55;;;;;;;3.03;1.10;;;;;;;;;;6219641;28;20018;-75
2023/06/28 11:42:56;;;;;;;4.53;1.42;;;;;;;;;;6216875;28;20030;-75
2023/06/28 11:45:56;;;;;;;5.82;1.80;;;;;;;;;;6218493;28;20026;-75
2023/06/28 11:48:57;;;;;;;5.87;1.60;;;;;;;;;;6217395;28;20032;-75
2023/06/28 11:51:57;;;;;;;7.57;1.70;;;;;;;;;;6206943;28;20034;-75
2023/06/28 11:54:57;;;;;;;2.92;1.58;;;;;;;;;;6198712;28;20030;-75
2023/06/28 11:57:58;;;;;;;1.98;1.02;;;;;;;;;;6216384;28;20737;-75
2023/06/28 12:00:59;;;;;;;7.53;1.90;;;;;;;;;;6218293;28;20030;-75
2023/06/28 12:03:59;;;;;;;1.70;1.23;;;;;;;;;;6218323;28;20026;-75
2023/06/28 12:07:01;;;;;;;3.80;1.20;;;;;;;;;;6216485;28;20108;-75
2023/06/28 12:10:01;;;;;;;6.05;1.33;;;;;;;;;;6211818;28;20019;-75
2023/06/28 12:13:02;;;;;;;5.40;1.40;;;;;;;;;;6197159;28;20495;-75
2023/06/28 12:16:12;;;;;;;2.53;0.90;;;;;;;;;;6212587;28;20032;-75
2023/06/28 12:19:15;;;;;;;5.15;1.00;;;;;;;;;;6217933;28;20033;-75
2023/06/28 12:22:15;;;;;;;3.63;1.50;;;;;;;;;;6215666;28;20085;-75
2023/06/28 12:25:24;;;;;;;4.67;1.77;;;;;;;;;;6207576;28;20469;-75
2023/06/28 12:28:24;;;;;;;4.38;1.48;;;;;;;;;;6210249;28;20447;-75
2023/06/28 12:31:24;;;;;;;3.93;1.20;;;;;;;;;;6214047;28;20036;-75
2023/06/28 12:34:26;;;;;;;1.73;1.00;;;;;;;;;;6195273;28;20010;-75
2023/06/28 12:37:35;;;;;;;3.13;1.33;;;;;;;;;;6208773;28;20029;-74
2023/06/28 12:40:36;;;;;;;6.95;1.35;;;;;;;;;;6208638;28;20052;-74
2023/06/28 12:43:36;;;;;;;5.53;1.60;;;;;;;;;;6214039;28;20025;-81
2023/06/28 12:46:36;;;;;;;3.67;1.33;;;;;;;;;;6215309;28;20498;-82
2023/06/28 12:49:37;;;;;;;6.40;1.40;;;;;;;;;;6215383;28;20056;-81
2023/06/28 12:52:37;;;;;;;1.70;1.20;;;;;;;;;;6199274;28;20448;-82
2023/06/28 12:55:38;;;;;;;2.40;1.13;;;;;;;;;;6214309;28;20036;-82
2023/06/28 12:58:38;;;;;;;2.78;1.23;;;;;;;;;;6213298;28;20034;-81
2023/06/28 13:01:38;;;;;;;4.97;1.30;;;;;;;;;;6216663;28;20018;-81
2023/06/28 13:04:39;;;;;;;14.90;1.92;;;;;;;;;;6196936;28;20018;-83
2023/06/28 13:07:39;;;;;;;5.10;1.77;;;;;;;;;;6214111;28;20542;-81
2023/06/28 13:10:39;;;;;;;9.80;1.60;;;;;;;;;;6216983;28;20065;-82
2023/06/28 13:13:39;;;;;;;4.87;1.53;;;;;;;;;;6214394;28;20018;-81
2023/06/28 13:16:40;;;;;;;5.27;1.20;;;;;;;;;;6215018;28;20366;-81
2023/06/28 13:19:40;;;;;;;3.70;1.43;;;;;;;;;;6215172;28;20825;-80
2023/06/28 13:22:40;;;;;;;9.53;1.67;;;;;;;;;;6216207;28;20093;-80
2023/06/28 13:25:40;;;;;;;6.22;1.45;;;;;;;;;;6216115;28;20053;-81
2023/06/28 13:28:43;;;;;;;5.03;1.70;;;;;;;;;;6216397;28;20048;-82
2023/06/28 13:31:43;;;;;;;8.55;1.50;;;;;;;;;;6215976;28;20029;-81
2023/06/28 13:34:44;;;;;;;5.53;1.40;;;;;;;;;;6212924;28;20021;-83
2023/06/28 13:37:45;;;;;;;6.10;1.83;;;;;;;;;;6213840;28;20526;-81
2023/06/28 13:40:45;;;;;;;5.65;1.52;;;;;;;;;;6213035;28;20113;-81
2023/06/28 13:43:45;;;;;;;3.93;1.60;;;;;;;;;;6216164;28;20018;-74
2023/06/28 13:46:45;;;;;;;2.97;1.50;;;;;;;;;;6216583;28;20033;-75
2023/06/28 13:49:45;;;;;;;3.60;1.40;;;;;;;;;;6215682;28;20026;-74
2023/06/28 13:52:46;;;;;;;4.33;1.47;;;;;;;;;;6219363;28;20096;-83
2023/06/28 13:55:46;;;;;;;2.17;1.58;;;;;;;;;;6221357;28;20026;-82
2023/06/28 13:58:47;;;;;;;6.53;1.60;;;;;;;;;;6221813;28;20403;-83
2023/06/28 14:01:47;;;;;;;9.63;1.83;;;;;;;;;;6220569;28;20028;-81
2023/06/28 14:04:49;;;;;;;6.07;1.77;;;;;;;;;;6220748;28;20452;-83
2023/06/28 14:07:49;;;;;;;5.85;1.80;;;;;;;;;;6216009;28;20018;-83
2023/06/28 14:10:49;;;;;;;5.67;1.73;;;;;;;;;;6221312;28;20029;-82
2023/06/28 14:13:49;;;;;;;5.43;1.93;;;;;;;;;;6221031;28;20134;-82
2023/06/28 14:16:50;;;;;;;5.87;1.73;;;;;;;;;;6216333;28;20397;-84
2023/06/28 14:19:50;;;;;;;4.77;2.23;;;;;;;;;;6216957;28;20024;-81
2023/06/28 14:22:53;;;;;;;5.30;2.38;;;;;;;;;;6198917;28;20033;-83
2023/06/28 14:25:53;;;;;;;4.60;1.73;;;;;;;;;;6220413;28;20369;-80
2023/06/28 14:28:53;;;;;;;6.22;2.20;;;;;;;;;;6215607;28;20053;-82
2023/06/28 14:31:53;;;;;;;2.92;1.73;;;;;;;;;;6220547;28;20405;-82
2023/06/28 14:34:53;;;;;;;9.03;2.23;;;;;;;;;;6216057;28;20022;-81
2023/06/28 14:37:54;;;;;;;4.93;2.08;;;;;;;;;;6202733;28;20123;-82
2023/06/28 14:40:54;;;;;;;3.47;1.93;;;;;;;;;;6220638;28;20030;-81
2023/06/28 14:43:54;;;;;;;4.77;1.87;;;;;;;;;;6218293;28;20093;-82
2023/06/28 14:46:54;;;;;;;4.90;1.37;;;;;;;;;;6220774;28;20531;-81
2023/06/28 14:49:55;;;;;;;5.97;1.93;;;;;;;;;;6221141;28;20244;-81
2023/06/28 14:52:55;;;;;;;2.37;1.60;;;;;;;;;;6220769;28;20499;-82
2023/06/28 14:55:55;;;;;;;5.13;2.27;;;;;;;;;;6220804;28;20029;-83
2023/06/28 14:58:55;;;;;;;5.57;2.10;;;;;;;;;;6220425;28;20013;-82
2023/06/28 15:01:56;;;;;;;9.77;2.03;;;;;;;;;;6226465;28;20021;-81
2023/06/28 15:04:57;;;;;;;3.00;1.83;;;;;;;;;;6203675;28;20128;-83
2023/06/28 15:07:57;;;;;;;4.93;2.57;;;;;;;;;;6219753;28;20018;-82
2023/06/28 15:10:58;;;;;;;4.87;1.90;;;;;;;;;;6217891;28;20033;-83
2023/06/28 15:14:01;;;;;;;4.83;1.63;;;;;;;;;;6217068;28;20024;-83
2023/06/28 15:17:02;;;;;;;4.57;2.15;;;;;;;;;;6220606;28;20488;-81
2023/06/28 15:20:03;;;;;;;3.97;2.13;;;;;;;;;;6213182;28;20020;-82
2023/06/28 15:23:04;;;;;;;7.53;2.30;;;;;;;;;;6217213;28;20010;-82
2023/06/28 15:26:04;;;;;;;6.07;2.00;;;;;;;;;;6220052;28;20021;-79
2023/06/28 15:29:05;;;;;;;5.03;2.15;;;;;;;;;;6218543;28;20053;-79
2023/06/28 15:32:05;;;;;;;6.93;3.33;;;;;;;;;;6219131;28;20013;-79
2023/06/28 15:35:06;;;;;;;5.77;2.40;;;;;;;;;;6220784;28;20483;-80
2023/06/28 15:38:06;;;;;;;5.10;2.77;;;;;;;;;;6220031;28;20036;-79
2023/06/28 15:41:06;;;;;;;4.60;2.37;;;;;;;;;;6219576;28;20489;-79
2023/06/28 15:44:06;;;;;;;3.83;2.33;;;;;;;;;;6201238;28;20041;-80
2023/06/28 15:47:09;;;;;;;4.97;2.50;;;;;;;;;;6219402;28;20060;-81
2023/06/28 15:50:10;;;;;;;10.25;3.17;;;;;;;;;;6215578;28;20022;-79
2023/06/28 15:53:10;;;;;;;6.40;3.57;;;;;;;;;;6219224;28;20697;-80
2023/06/28 15:56:10;;;;;;;7.93;4.35;;;;;;;;;;6218996;28;20018;-79
2023/06/28 15:59:10;;;;;;;6.70;3.00;;;;;;;;;;6199865;28;20450;-79
2023/06/28 16:02:13;;;;;;;7.18;3.58;;;;;;;;;;6219049;28;20021;-74
2023/06/28 16:05:13;;;;;;;8.32;2.60;;;;;;;;;;6218986;28;20032;-74
2023/06/28 16:08:13;;;;;;;6.22;2.67;;;;;;;;;;6218666;28;20018;-74
2023/06/28 16:11:14;;;;;;;6.50;2.50;;;;;;;;;;6218438;28;20097;-74
2023/06/28 16:14:14;;;;;;;3.92;2.35;;;;;;;;;;6218509;28;20024;-78
2023/06/28 16:17:16;;;;;;;2.43;2.00;;;;;;;;;;6218616;28;20527;-78
2023/06/28 16:20:16;;;;;;;8.95;2.90;;;;;;;;;;6219222;28;20030;-78
2023/06/28 16:23:16;;;;;;;10.40;4.10;;;;;;;;;;6218847;28;20472;-74
2023/06/28 16:26:16;;;;;;;7.00;3.10;;;;;;;;;;6218813;28;20040;-74
2023/06/28 16:29:17;;;;;;;7.83;3.87;;;;;;;;;;6218223;28;20121;-74
2023/06/28 16:32:17;;;;;;;10.13;4.13;;;;;;;;;;6218599;28;20048;-74
2023/06/28 16:35:17;;;;;;;11.73;3.67;;;;;;;;;;6218923;28;20025;-75
2023/06/28 16:38:17;;;;;;;6.20;4.30;;;;;;;;;;6218398;28;20030;-75
2023/06/28 16:41:18;;;;;;;16.37;7.23;;;;;;;;;;6218314;28;20121;-75
2023/06/28 16:44:18;;;;;;;12.70;5.80;;;;;;;;;;6217244;28;20048;-76
2023/06/28 16:47:18;;;;;;;10.77;5.00;;;;;;;;;;6218555;28;20277;-76
2023/06/28 16:50:18;;;;;;;11.23;4.63;;;;;;;;;;6218045;28;20469;-76
2023/06/28 16:53:19;;;;;;;14.67;5.50;;;;;;;;;;6218200;28;20033;-75
2023/06/28 16:56:19;;;;;;;11.38;5.00;;;;;;;;;;6218727;28;20041;-76
2023/06/28 16:59:19;;;;;;;10.67;5.00;;;;;;;;;;6218985;28;20025;-75
2023/06/28 17:02:19;;;;;;;8.53;4.83;;;;;;;;;;6217633;28;20030;-75
2023/06/28 17:05:19;;;;;;;8.50;5.40;;;;;;;;;;6218121;28;20092;-75
2023/06/28 17:08:21;;;;;;;11.50;6.17;;;;;;;;;;6217876;28;20022;-76
2023/06/28 17:11:24;;;;;;;15.80;5.95;;;;;;;;;;6217644;28;20034;-75
2023/06/28 17:14:24;;;;;;;14.18;5.40;;;;;;;;;;6199908;28;20018;-76
2023/06/28 17:17:24;;;;;;;15.40;6.93;;;;;;;;;;6217298;28;20443;-76
2023/06/28 17:20:25;;;;;;;12.83;6.23;;;;;;;;;;6217360;28;20022;-76
2023/06/28 17:23:26;;;;;;;12.93;7.57;;;;;;;;;;6217486;28;20049;-81
2023/06/28 17:26:29;;;;;;;16.83;7.07;;;;;;;;;;6218482;28;20026;-80
2023/06/28 17:29:30;;;;;;;17.25;6.38;;;;;;;;;;6222185;28;20042;-81
2023/06/28 17:32:31;;;;;;;16.83;7.17;;;;;;;;;;6222570;28;20026;-81
2023/06/28 17:35:31;;;;;;;12.65;5.72;;;;;;;;;;6222842;28;20025;-80
2023/06/28 17:38:31;;;;;;;10.95;6.03;;;;;;;;;;6221826;28;20535;-80
2023/06/28 17:41:32;;;;;;;11.30;6.37;;;;;;;;;;6221999;28;20026;-81
2023/06/28 17:44:32;;;;;;;13.73;8.30;;;;;;;;;;6220101;28;20036;-80
2023/06/28 17:47:32;;;;;;;13.47;6.37;;;;;;;;;;6222241;28;20036;-81
2023/06/28 17:50:33;;;;;;;9.20;5.70;;;;;;;;;;6222343;28;20021;-80
2023/06/28 17:53:34;;;;;;;9.93;6.00;;;;;;;;;;6218107;28;20120;-81
2023/06/28 17:56:34;;;;;;;11.27;4.70;;;;;;;;;;6215278;28;20050;-82
2023/06/28 17:59:34;;;;;;;11.97;6.33;;;;;;;;;;6221712;28;20048;-81
2023/06/28 18:02:34;;;;;;;11.57;6.17;;;;;;;;;;6221201;28;20057;-81